AUA595 LOWW-LOWI
Flight info
| Callsign | AUA595 |
|---|---|
| Flight time | 0h 44m |
| Altitude | 30000 |
| Route | SOVIL2B/16 SOVIL DCT SITNI DCT BAGSI DCT NANIT NANIT2A |
| Aircraft | A320/M-SDE3FGHIRWY/LB1 |
Departure
| Time | 2026-05-06 18:08 |
|---|---|
| Airport | Vienna International Airport (LOWW) |
Arrival
| Time | 2026-05-06 18:52 |
|---|---|
| Airport | Innsbruck Airport (LOWI) |
| Time | Latitude | Longitude | Altitude | Speed | Heading |
|---|---|---|---|---|---|
| 2026-05-06 17:35 | 48.11738 | 16.56677 | 603 ft | 0 kts | 27° |
| 2026-05-06 17:38 | 48.11737 | 16.56677 | 603 ft | 0 kts | 27° |
| 2026-05-06 17:44 | 48.11737 | 16.56676 | 603 ft | 0 kts | 27° |
| 2026-05-06 17:45 | 48.11736 | 16.56676 | 603 ft | 0 kts | 27° |
| 2026-05-06 17:51 | 48.11735 | 16.56676 | 603 ft | 0 kts | 27° |
| 2026-05-06 17:52 | 48.11735 | 16.56675 | 603 ft | 0 kts | 27° |
| 2026-05-06 17:55 | 48.11729 | 16.56670 | 603 ft | 7 kts | 27° |
| 2026-05-06 17:55 | 48.11705 | 16.56652 | 618 ft | 7 kts | 35° |
| 2026-05-06 17:56 | 48.11687 | 16.56625 | 616 ft | 8 kts | 66° |
| 2026-05-06 17:56 | 48.11684 | 16.56593 | 615 ft | 6 kts | 114° |
| 2026-05-06 17:56 | 48.11686 | 16.56585 | 617 ft | 13 kts | 114° |
| 2026-05-06 17:58 | 48.11685 | 16.56588 | 616 ft | 3 kts | 114° |
| 2026-05-06 17:59 | 48.11659 | 16.56673 | 613 ft | 12 kts | 115° |
| 2026-05-06 17:59 | 48.11623 | 16.56783 | 620 ft | 12 kts | 116° |
| 2026-05-06 17:59 | 48.11588 | 16.56892 | 608 ft | 12 kts | 115° |
| 2026-05-06 17:59 | 48.11550 | 16.57009 | 613 ft | 13 kts | 116° |
| 2026-05-06 18:00 | 48.11523 | 16.57093 | 622 ft | 13 kts | 116° |
| 2026-05-06 18:00 | 48.11470 | 16.57253 | 621 ft | 13 kts | 116° |
| 2026-05-06 18:00 | 48.11433 | 16.57368 | 614 ft | 10 kts | 109° |
| 2026-05-06 18:00 | 48.11473 | 16.57450 | 609 ft | 12 kts | 23° |
| 2026-05-06 18:01 | 48.11554 | 16.57453 | 614 ft | 12 kts | 346° |
| 2026-05-06 18:01 | 48.11630 | 16.57421 | 617 ft | 11 kts | 345° |
| 2026-05-06 18:01 | 48.11698 | 16.57393 | 613 ft | 10 kts | 345° |
| 2026-05-06 18:01 | 48.11772 | 16.57366 | 604 ft | 12 kts | 357° |
| 2026-05-06 18:02 | 48.11817 | 16.57450 | 602 ft | 12 kts | 75° |
| 2026-05-06 18:02 | 48.11841 | 16.57575 | 602 ft | 12 kts | 73° |
| 2026-05-06 18:02 | 48.11852 | 16.57629 | 603 ft | 0 kts | 73° |
| 2026-05-06 18:05 | 48.11853 | 16.57638 | 603 ft | 6 kts | 73° |
| 2026-05-06 18:05 | 48.11860 | 16.57805 | 602 ft | 15 kts | 107° |
| 2026-05-06 18:06 | 48.11816 | 16.57886 | 602 ft | 5 kts | 165° |
| 2026-05-06 18:06 | 48.11816 | 16.57887 | 602 ft | 0 kts | 165° |
| 2026-05-06 18:06 | 48.11815 | 16.57887 | 602 ft | 0 kts | 165° |
| 2026-05-06 18:07 | 48.11751 | 16.57914 | 618 ft | 34 kts | 163° |
| 2026-05-06 18:07 | 48.11294 | 16.58108 | 608 ft | 100 kts | 164° |
| 2026-05-06 18:07 | 48.10454 | 16.58461 | 614 ft | 150 kts | 164° |
| 2026-05-06 18:07 | 48.09418 | 16.58913 | 1146 ft | 153 kts | 163° |
| 2026-05-06 18:08 | 48.08390 | 16.59341 | 1810 ft | 154 kts | 168° |
| 2026-05-06 18:08 | 48.07298 | 16.59784 | 2235 ft | 173 kts | 170° |
| 2026-05-06 18:08 | 48.06052 | 16.60015 | 2512 ft | 191 kts | 195° |
| 2026-05-06 18:08 | 48.04874 | 16.58899 | 2879 ft | 217 kts | 223° |
| 2026-05-06 18:09 | 48.03879 | 16.57071 | 3490 ft | 233 kts | 231° |
| 2026-05-06 18:09 | 48.02949 | 16.55073 | 4374 ft | 236 kts | 233° |
| 2026-05-06 18:09 | 48.02009 | 16.53029 | 5241 ft | 240 kts | 233° |
| 2026-05-06 18:09 | 48.01038 | 16.50971 | 6078 ft | 245 kts | 232° |
| 2026-05-06 18:10 | 48.00028 | 16.48897 | 6873 ft | 249 kts | 232° |
| 2026-05-06 18:10 | 47.98987 | 16.46808 | 7664 ft | 253 kts | 232° |
| 2026-05-06 18:10 | 47.98157 | 16.44463 | 8437 ft | 261 kts | 250° |
| 2026-05-06 18:10 | 47.97906 | 16.41742 | 9234 ft | 271 kts | 268° |
| 2026-05-06 18:11 | 47.97979 | 16.39866 | 9759 ft | 274 kts | 269° |
| 2026-05-06 18:11 | 47.98099 | 16.37000 | 10467 ft | 279 kts | 269° |
| 2026-05-06 18:11 | 47.98218 | 16.34101 | 11239 ft | 281 kts | 269° |
| 2026-05-06 18:11 | 47.98337 | 16.31168 | 11963 ft | 286 kts | 270° |
| 2026-05-06 18:12 | 47.98455 | 16.28165 | 12620 ft | 292 kts | 270° |
| 2026-05-06 18:12 | 47.98573 | 16.25076 | 13012 ft | 309 kts | 270° |
| 2026-05-06 18:12 | 47.98693 | 16.21752 | 13194 ft | 331 kts | 270° |
| 2026-05-06 18:12 | 47.98822 | 16.18279 | 13704 ft | 339 kts | 270° |
| 2026-05-06 18:13 | 47.98957 | 16.14735 | 14303 ft | 344 kts | 270° |
| 2026-05-06 18:13 | 47.99110 | 16.11154 | 14948 ft | 347 kts | 271° |
| 2026-05-06 18:13 | 47.99345 | 16.07548 | 15609 ft | 350 kts | 273° |
| 2026-05-06 18:13 | 47.99633 | 16.03934 | 16266 ft | 352 kts | 274° |
| 2026-05-06 18:14 | 47.99943 | 16.00294 | 16929 ft | 355 kts | 274° |
| 2026-05-06 18:14 | 48.00254 | 15.96626 | 17582 ft | 357 kts | 273° |
| 2026-05-06 18:14 | 48.00556 | 15.92941 | 18188 ft | 359 kts | 273° |
| 2026-05-06 18:14 | 48.00849 | 15.89235 | 18794 ft | 360 kts | 272° |
| 2026-05-06 18:15 | 48.01135 | 15.85514 | 19378 ft | 361 kts | 272° |
| 2026-05-06 18:15 | 48.01415 | 15.81782 | 19951 ft | 363 kts | 272° |
| 2026-05-06 18:15 | 48.01690 | 15.78063 | 20506 ft | 366 kts | 272° |
| 2026-05-06 18:15 | 48.01967 | 15.74266 | 21068 ft | 369 kts | 271° |
| 2026-05-06 18:16 | 48.02246 | 15.70444 | 21634 ft | 372 kts | 271° |
| 2026-05-06 18:16 | 48.02527 | 15.66596 | 22169 ft | 374 kts | 271° |
| 2026-05-06 18:16 | 48.02812 | 15.62723 | 22684 ft | 377 kts | 271° |
| 2026-05-06 18:16 | 48.03100 | 15.58801 | 23224 ft | 380 kts | 271° |
| 2026-05-06 18:17 | 48.03389 | 15.54865 | 23687 ft | 383 kts | 271° |
| 2026-05-06 18:17 | 48.03681 | 15.50899 | 24121 ft | 385 kts | 271° |
| 2026-05-06 18:17 | 48.03970 | 15.46908 | 24575 ft | 386 kts | 271° |
| 2026-05-06 18:17 | 48.04254 | 15.42914 | 25006 ft | 388 kts | 271° |
| 2026-05-06 18:18 | 48.04539 | 15.38891 | 25416 ft | 389 kts | 271° |
| 2026-05-06 18:18 | 48.04766 | 15.34859 | 25792 ft | 390 kts | 269° |
| 2026-05-06 18:18 | 48.04882 | 15.30808 | 26149 ft | 391 kts | 267° |
| 2026-05-06 18:18 | 48.04929 | 15.26735 | 26533 ft | 392 kts | 266° |
| 2026-05-06 18:19 | 48.04950 | 15.22655 | 26914 ft | 394 kts | 266° |
| 2026-05-06 18:19 | 48.04971 | 15.18557 | 27270 ft | 396 kts | 266° |
| 2026-05-06 18:19 | 48.05006 | 15.14437 | 27631 ft | 398 kts | 266° |
| 2026-05-06 18:19 | 48.05055 | 15.10295 | 27987 ft | 399 kts | 266° |
| 2026-05-06 18:20 | 48.05114 | 15.06131 | 28341 ft | 401 kts | 267° |
| 2026-05-06 18:20 | 48.05178 | 15.02004 | 28719 ft | 402 kts | 266° |
| 2026-05-06 18:20 | 48.05242 | 14.97813 | 29052 ft | 404 kts | 266° |
| 2026-05-06 18:20 | 48.05302 | 14.93611 | 29356 ft | 406 kts | 266° |
| 2026-05-06 18:21 | 48.05353 | 14.89388 | 29646 ft | 407 kts | 266° |
| 2026-05-06 18:21 | 48.05405 | 14.85181 | 29719 ft | 399 kts | 266° |
| 2026-05-06 18:21 | 48.05462 | 14.81112 | 29726 ft | 386 kts | 266° |
| 2026-05-06 18:21 | 48.05507 | 14.77125 | 29717 ft | 382 kts | 265° |
| 2026-05-06 18:22 | 48.05566 | 14.69161 | 29717 ft | 380 kts | 265° |
| 2026-05-06 18:22 | 48.05607 | 14.61330 | 29717 ft | 379 kts | 265° |
| 2026-05-06 18:23 | 48.05549 | 14.53526 | 29717 ft | 369 kts | 256° |
| 2026-05-06 18:23 | 48.04827 | 14.49900 | 29716 ft | 361 kts | 244° |
| 2026-05-06 18:23 | 48.03831 | 14.46459 | 29717 ft | 361 kts | 244° |
| 2026-05-06 18:24 | 48.01827 | 14.39593 | 29704 ft | 360 kts | 244° |
| 2026-05-06 18:24 | 47.99819 | 14.32740 | 29704 ft | 360 kts | 243° |
| 2026-05-06 18:25 | 47.97807 | 14.25891 | 29701 ft | 360 kts | 243° |
| 2026-05-06 18:25 | 47.95788 | 14.19043 | 29702 ft | 360 kts | 243° |
| 2026-05-06 18:26 | 47.93754 | 14.12194 | 29727 ft | 367 kts | 243° |
| 2026-05-06 18:26 | 47.91585 | 14.05114 | 29725 ft | 377 kts | 243° |
| 2026-05-06 18:27 | 47.90500 | 14.01631 | 29429 ft | 367 kts | 243° |
| 2026-05-06 18:27 | 47.89440 | 13.98177 | 28775 ft | 365 kts | 243° |
| 2026-05-06 18:27 | 47.88391 | 13.94741 | 28315 ft | 364 kts | 243° |
| 2026-05-06 18:27 | 47.87340 | 13.91307 | 27969 ft | 364 kts | 243° |
| 2026-05-06 18:28 | 47.86290 | 13.87881 | 27611 ft | 363 kts | 243° |
| 2026-05-06 18:28 | 47.85239 | 13.84463 | 27265 ft | 363 kts | 243° |
| 2026-05-06 18:28 | 47.84193 | 13.81052 | 26924 ft | 361 kts | 243° |
| 2026-05-06 18:28 | 47.83151 | 13.77649 | 26599 ft | 360 kts | 243° |
| 2026-05-06 18:29 | 47.82107 | 13.74266 | 26258 ft | 359 kts | 242° |
| 2026-05-06 18:29 | 47.81047 | 13.70899 | 25927 ft | 360 kts | 242° |
| 2026-05-06 18:29 | 47.79994 | 13.67533 | 25595 ft | 358 kts | 243° |
| 2026-05-06 18:29 | 47.78972 | 13.64209 | 25289 ft | 358 kts | 243° |
| 2026-05-06 18:30 | 47.77949 | 13.60837 | 24973 ft | 357 kts | 243° |
| 2026-05-06 18:30 | 47.76938 | 13.57466 | 24692 ft | 356 kts | 244° |
| 2026-05-06 18:30 | 47.75924 | 13.54065 | 24382 ft | 355 kts | 244° |
| 2026-05-06 18:30 | 47.74941 | 13.50763 | 24088 ft | 353 kts | 244° |
| 2026-05-06 18:31 | 47.73946 | 13.47435 | 23788 ft | 352 kts | 243° |
| 2026-05-06 18:31 | 47.72949 | 13.44121 | 23487 ft | 351 kts | 243° |
| 2026-05-06 18:31 | 47.71953 | 13.40811 | 23158 ft | 351 kts | 243° |
| 2026-05-06 18:31 | 47.70967 | 13.37508 | 22808 ft | 349 kts | 244° |
| 2026-05-06 18:32 | 47.69993 | 13.34215 | 22465 ft | 348 kts | 244° |
| 2026-05-06 18:32 | 47.69020 | 13.30954 | 22181 ft | 341 kts | 243° |
| 2026-05-06 18:32 | 47.68064 | 13.27784 | 21911 ft | 331 kts | 243° |
| 2026-05-06 18:32 | 47.67131 | 13.24707 | 21651 ft | 323 kts | 243° |
| 2026-05-06 18:33 | 47.66214 | 13.21689 | 21382 ft | 320 kts | 243° |
| 2026-05-06 18:33 | 47.65296 | 13.18680 | 21130 ft | 319 kts | 243° |
| 2026-05-06 18:33 | 47.64382 | 13.15688 | 20873 ft | 318 kts | 243° |
| 2026-05-06 18:33 | 47.63471 | 13.12703 | 20621 ft | 317 kts | 243° |
| 2026-05-06 18:34 | 47.62561 | 13.09725 | 20385 ft | 316 kts | 243° |
| 2026-05-06 18:34 | 47.61654 | 13.06761 | 20160 ft | 315 kts | 243° |
| 2026-05-06 18:34 | 47.60752 | 13.03809 | 19918 ft | 314 kts | 243° |
| 2026-05-06 18:34 | 47.59850 | 13.00860 | 19670 ft | 313 kts | 243° |
| 2026-05-06 18:35 | 47.58952 | 12.97925 | 19424 ft | 313 kts | 243° |
| 2026-05-06 18:35 | 47.58051 | 12.94990 | 19184 ft | 313 kts | 243° |
| 2026-05-06 18:35 | 47.57162 | 12.92048 | 18945 ft | 313 kts | 246° |
| 2026-05-06 18:35 | 47.56441 | 12.89015 | 18703 ft | 313 kts | 248° |
| 2026-05-06 18:36 | 47.55765 | 12.85949 | 18465 ft | 312 kts | 249° |
| 2026-05-06 18:36 | 47.55115 | 12.82897 | 18236 ft | 311 kts | 250° |
| 2026-05-06 18:36 | 47.54470 | 12.79836 | 17984 ft | 310 kts | 249° |
| 2026-05-06 18:36 | 47.53824 | 12.76796 | 17709 ft | 309 kts | 249° |
| 2026-05-06 18:37 | 47.53173 | 12.73766 | 17441 ft | 308 kts | 249° |
| 2026-05-06 18:37 | 47.52521 | 12.70752 | 17173 ft | 307 kts | 249° |
| 2026-05-06 18:37 | 47.51869 | 12.67756 | 16892 ft | 305 kts | 249° |
| 2026-05-06 18:37 | 47.51213 | 12.64769 | 16626 ft | 305 kts | 249° |
| 2026-05-06 18:38 | 47.50559 | 12.61798 | 16373 ft | 303 kts | 249° |
| 2026-05-06 18:38 | 47.49909 | 12.58842 | 16132 ft | 302 kts | 249° |
| 2026-05-06 18:38 | 47.49257 | 12.55876 | 15869 ft | 303 kts | 249° |
| 2026-05-06 18:38 | 47.48605 | 12.52916 | 15626 ft | 303 kts | 249° |
| 2026-05-06 18:39 | 47.47959 | 12.49989 | 15381 ft | 302 kts | 249° |
| 2026-05-06 18:39 | 47.47310 | 12.47047 | 15127 ft | 301 kts | 249° |
| 2026-05-06 18:39 | 47.46662 | 12.44116 | 14877 ft | 299 kts | 249° |
| 2026-05-06 18:40 | 47.45369 | 12.38288 | 14392 ft | 297 kts | 249° |
| 2026-05-06 18:40 | 47.44729 | 12.35394 | 14145 ft | 296 kts | 249° |
| 2026-05-06 18:40 | 47.44093 | 12.32515 | 13908 ft | 294 kts | 249° |
| 2026-05-06 18:40 | 47.43454 | 12.29636 | 13670 ft | 292 kts | 249° |
| 2026-05-06 18:41 | 47.42820 | 12.26799 | 13415 ft | 290 kts | 249° |
| 2026-05-06 18:41 | 47.42188 | 12.23974 | 13138 ft | 290 kts | 249° |
| 2026-05-06 18:41 | 47.41554 | 12.21144 | 12876 ft | 290 kts | 249° |
| 2026-05-06 18:41 | 47.40922 | 12.18324 | 12612 ft | 289 kts | 249° |
| 2026-05-06 18:42 | 47.40290 | 12.15520 | 12352 ft | 288 kts | 249° |
| 2026-05-06 18:42 | 47.39661 | 12.12722 | 12091 ft | 287 kts | 249° |
| 2026-05-06 18:42 | 47.39032 | 12.09932 | 11853 ft | 286 kts | 249° |
| 2026-05-06 18:42 | 47.38404 | 12.07147 | 11545 ft | 285 kts | 249° |
| 2026-05-06 18:43 | 47.37781 | 12.04371 | 11190 ft | 285 kts | 249° |
| 2026-05-06 18:43 | 47.37168 | 12.01641 | 11014 ft | 275 kts | 249° |
| 2026-05-06 18:43 | 47.36585 | 11.99043 | 10890 ft | 257 kts | 248° |
| 2026-05-06 18:43 | 47.36040 | 11.96617 | 10626 ft | 244 kts | 248° |
| 2026-05-06 18:44 | 47.35504 | 11.94256 | 10222 ft | 240 kts | 248° |
| 2026-05-06 18:44 | 47.34971 | 11.91922 | 10052 ft | 240 kts | 248° |
| 2026-05-06 18:44 | 47.34437 | 11.89592 | 9921 ft | 237 kts | 248° |
| 2026-05-06 18:44 | 47.33926 | 11.87342 | 9819 ft | 227 kts | 248° |
| 2026-05-06 18:45 | 47.33437 | 11.85181 | 9710 ft | 217 kts | 248° |
| 2026-05-06 18:45 | 47.32984 | 11.83124 | 9646 ft | 203 kts | 249° |
| 2026-05-06 18:45 | 47.32556 | 11.81189 | 9504 ft | 197 kts | 246° |
| 2026-05-06 18:45 | 47.32262 | 11.79927 | 9307 ft | 196 kts | 249° |
| 2026-05-06 18:46 | 47.31811 | 11.77322 | 8878 ft | 196 kts | 254° |
| 2026-05-06 18:46 | 47.31530 | 11.75348 | 8533 ft | 197 kts | 254° |
| 2026-05-06 18:46 | 47.31261 | 11.73382 | 8196 ft | 194 kts | 255° |
| 2026-05-06 18:46 | 47.30995 | 11.71424 | 7880 ft | 195 kts | 255° |
| 2026-05-06 18:47 | 47.30733 | 11.69499 | 7559 ft | 193 kts | 255° |
| 2026-05-06 18:47 | 47.30471 | 11.67570 | 7242 ft | 191 kts | 254° |
| 2026-05-06 18:47 | 47.30207 | 11.65632 | 6927 ft | 191 kts | 255° |
| 2026-05-06 18:47 | 47.29943 | 11.63699 | 6620 ft | 194 kts | 255° |
| 2026-05-06 18:48 | 47.29681 | 11.61778 | 6315 ft | 194 kts | 256° |
| 2026-05-06 18:48 | 47.29414 | 11.59827 | 5991 ft | 194 kts | 256° |
| 2026-05-06 18:48 | 47.29148 | 11.57886 | 5661 ft | 193 kts | 257° |
| 2026-05-06 18:48 | 47.28882 | 11.55949 | 5326 ft | 194 kts | 257° |
| 2026-05-06 18:49 | 47.28615 | 11.54001 | 4994 ft | 194 kts | 257° |
| 2026-05-06 18:49 | 47.28346 | 11.52045 | 4662 ft | 195 kts | 257° |
| 2026-05-06 18:49 | 47.28077 | 11.50089 | 4338 ft | 192 kts | 256° |
| 2026-05-06 18:49 | 47.27824 | 11.48251 | 4049 ft | 175 kts | 256° |
| 2026-05-06 18:50 | 47.27590 | 11.46554 | 3776 ft | 163 kts | 257° |
| 2026-05-06 18:50 | 47.27372 | 11.44975 | 3512 ft | 153 kts | 258° |
| 2026-05-06 18:50 | 47.27163 | 11.43467 | 3260 ft | 148 kts | 258° |
| 2026-05-06 18:50 | 47.26958 | 11.41991 | 3019 ft | 146 kts | 258° |
| 2026-05-06 18:51 | 47.26754 | 11.40532 | 2769 ft | 145 kts | 258° |
| 2026-05-06 18:51 | 47.26551 | 11.39061 | 2503 ft | 147 kts | 257° |
| 2026-05-06 18:51 | 47.26369 | 11.37562 | 2274 ft | 151 kts | 255° |
| 2026-05-06 18:51 | 47.26203 | 11.36006 | 1983 ft | 156 kts | 254° |
| 2026-05-06 18:52 | 47.26031 | 11.34530 | 1901 ft | 121 kts | 261° |
| 2026-05-06 18:52 | 47.25953 | 11.33773 | 1908 ft | 20 kts | 262° |
| 2026-05-06 18:52 | 47.25881 | 11.33743 | 1901 ft | 13 kts | 129° |
| 2026-05-06 18:52 | 47.25833 | 11.33831 | 1900 ft | 10 kts | 128° |
| 2026-05-06 18:53 | 47.25800 | 11.33895 | 1895 ft | 7 kts | 126° |
| 2026-05-06 18:53 | 47.25774 | 11.33979 | 1899 ft | 12 kts | 105° |
| 2026-05-06 18:53 | 47.25778 | 11.34128 | 1902 ft | 17 kts | 81° |
| 2026-05-06 18:53 | 47.25798 | 11.34322 | 1902 ft | 21 kts | 81° |
| 2026-05-06 18:54 | 47.25823 | 11.34549 | 1896 ft | 23 kts | 79° |
| 2026-05-06 18:54 | 47.25844 | 11.34748 | 1904 ft | 19 kts | 82° |
| 2026-05-06 18:54 | 47.25808 | 11.34810 | 1905 ft | 8 kts | 173° |
| 2026-05-06 18:54 | 47.25796 | 11.34812 | 1907 ft | 0 kts | 173° |
| 2026-05-06 18:56 | 47.25797 | 11.34812 | 1907 ft | 0 kts | 173° |